Terminal Aerodrome Forecast
Issued by NWS

Home | Current Version | Previous Version | Text Only | Print | Product List | Glossary On
Versions: 1 2 3 4 5 6 7 8 9 10 11 12 13 14
000
FTUS42 TJSJ 171700
TAFJBQ
TAF
TJBQ 171733Z 1718/1818 06010KT P6SM FEW030
     FM172000 07010KT P6SM VCSH SCT025 BKN040
     FM172300 10004KT P6SM FEW025
     FM181400 08013KT P6SM SCT025
      AMD NOT SKED 1802/1811=

USA.gov is the U.S. government's official web portal to all federal, state and local government web resources and services.